Mount Robson — P3TB9 — position and weather

sailwx.info

Track history (hours):
 
Tides and Currents Weather Stations Pressure Air Temp Water Temp Dewpoint Dewpoint Depression Visibility Wind Speed Wind Dir Waves Ship Positions

Mount Robson

Last reported at 2014-Oct-20 02:16 UTC. Time now 2014-Oct-25 12:02 UTC.
Position N 35°48' E 014°55'.

Length 181 m; draft 10.2 m.

Type: Tanker. MMSI: 210253000.

Date/timePositionNaut miles runAvg speedWind from/ knotsBaromVisibWave heightAir tempDewpointWater temp
2014-Oct-20 02:16N 35°48' E 014°55'0 0.0
2014-Oct-20 01:07N 35°48' E 014°55'0 0.0
2014-Oct-19 23:25N 35°48' E 014°55'0 0.0
2014-Oct-19 05:31N 35°48' E 014°55'41012.0
2014-Oct-17 19:22N 36°32' E 023°20'1012.4
2014-Oct-17 18:33N 36°41' E 023°26'1211.8
2014-Oct-17 17:33N 36°51' E 023°34'1212.4
2014-Oct-17 16:33N 36°60' E 023°45'1312.6
2014-Oct-17 15:33N 37°09' E 023°56'2512.4
2014-Oct-17 13:33N 37°27' E 024°17'1612.3
2014-Oct-17 12:16N 37°40' E 024°28'1012.8
2014-Oct-17 11:30N 37°49' E 024°33'12812.3
2014-Oct-17 01:07N 39°46' E 025°41'1013.0
2014-Oct-17 00:21N 39°54' E 025°49'172 6.1
2014-Oct-15 20:05N 41°16' E 029°08'17 2.2
2014-Oct-15 12:13N 41°27' E 029°25'1112.1
2014-Oct-15 11:21N 41°32' E 029°38'26012.4
2014-Oct-14 14:26N 43°30' E 034°52'1112.5
2014-Oct-14 13:33N 43°35' E 035°06'1312.4
2014-Oct-14 12:29N 43°41' E 035°22'1212.4
2014-Oct-14 11:32N 43°46' E 035°36'1212.4
2014-Oct-14 10:33N 43°52' E 035°51'4012.2
2014-Oct-14 07:18N 44°10' E 036°40'3512.5
2014-Oct-14 04:30N 44°26' E 037°24'1212.7
2014-Oct-14 03:33N 44°31' E 037°39'1211.9
2014-Oct-14 02:33N 44°39' E 037°51'5 4.9
2014-Oct-14 01:33N 44°44' E 037°47'0 0.0
2014-Oct-14 00:30N 44°44' E 037°47'0 0.0
2014-Oct-13 23:31N 44°44' E 037°47'0 0.0
2014-Oct-13 22:31N 44°44' E 037°47'0 0.0
2014-Oct-13 21:28N 44°44' E 037°47'0 0.0
2014-Oct-13 20:31N 44°44' E 037°47'0 0.0
2014-Oct-13 19:31N 44°44' E 037°47'0 0.0
2014-Oct-13 18:31N 44°44' E 037°47'0 0.0
2014-Oct-13 17:30N 44°44' E 037°47'0 0.0
2014-Oct-13 16:33N 44°44' E 037°47'0 0.0
2014-Oct-13 15:31N 44°44' E 037°47'0 0.0
2014-Oct-13 14:33N 44°44' E 037°47'0 0.0
2014-Oct-13 13:31N 44°44' E 037°47'0 0.0
2014-Oct-13 12:28N 44°44' E 037°47'0 0.0
2014-Oct-13 11:31N 44°44' E 037°47'0 0.0
2014-Oct-13 10:30N 44°44' E 037°47'0 0.0
2014-Oct-13 09:31N 44°44' E 037°47'0 0.0
2014-Oct-13 08:31N 44°44' E 037°47'0 0.0
2014-Oct-13 07:30N 44°44' E 037°47'0 0.0
2014-Oct-13 06:33N 44°44' E 037°47'0 0.0
2014-Oct-13 05:34N 44°44' E 037°47'0 0.0
2014-Oct-13 04:28N 44°44' E 037°47'0 0.0
2014-Oct-13 03:34N 44°44' E 037°47'0 0.0
2014-Oct-13 02:30N 44°44' E 037°47'0 0.0
2014-Oct-13 01:31N 44°44' E 037°47'0 0.0
2014-Oct-13 00:28N 44°44' E 037°47'0 0.0
2014-Oct-12 23:31N 44°44' E 037°47'0 0.0
2014-Oct-12 22:31N 44°44' E 037°47'0 0.0
2014-Oct-12 21:31N 44°44' E 037°47'0 0.0
2014-Oct-12 20:31N 44°44' E 037°47'0 0.0
2014-Oct-12 19:31N 44°44' E 037°47'0 0.0
2014-Oct-12 18:31N 44°44' E 037°47'0 0.0
2014-Oct-12 17:30N 44°44' E 037°47'0 0.0
2014-Oct-12 16:28N 44°44' E 037°47'0 0.0
2014-Oct-12 15:31N 44°44' E 037°47'0 0.0
2014-Oct-12 14:28N 44°44' E 037°47'0 0.0
2014-Oct-12 13:31N 44°44' E 037°47'0 0.0
2014-Oct-12 12:31N 44°44' E 037°47'0 0.0
2014-Oct-12 11:28N 44°44' E 037°47'0 0.0
2014-Oct-12 10:25N 44°44' E 037°47'0 0.0
2014-Oct-12 09:28N 44°44' E 037°47'0 0.0
2014-Oct-12 08:28N 44°44' E 037°47'0 0.0
2014-Oct-12 07:31N 44°44' E 037°47'0 0.0
2014-Oct-12 06:27N 44°44' E 037°47'0 0.0
2014-Oct-12 05:31N 44°44' E 037°47'0 0.0
2014-Oct-12 04:31N 44°44' E 037°47'0 0.0
2014-Oct-12 03:30N 44°44' E 037°47'0 0.0
2014-Oct-12 02:28N 44°44' E 037°47'0 0.0
2014-Oct-12 01:33N 44°44' E 037°47'0 0.0
2014-Oct-12 00:31N 44°44' E 037°47'0 0.0
2014-Oct-11 23:28N 44°44' E 037°47'0 0.0
2014-Oct-11 22:33N 44°44' E 037°47'0 0.0
2014-Oct-11 21:31N 44°44' E 037°47'2 2.6
2014-Oct-11 20:33N 44°42' E 037°49'7 7.4
2014-Oct-11 19:33N 44°34' E 037°51'1212.3
2014-Oct-11 18:33N 44°27' E 037°38'4 3.5
2014-Oct-11 17:31N 44°23' E 037°36'2 2.1
2014-Oct-11 16:29N 44°23' E 037°39'2 1.7
2014-Oct-11 15:32N 44°23' E 037°41'2 1.6
2014-Oct-11 14:33N 44°23' E 037°44'1 1.3
2014-Oct-11 13:33N 44°24' E 037°45'1 0.9
2014-Oct-11 12:33N 44°24' E 037°47'1 0.7
2014-Oct-11 11:33N 44°24' E 037°48'4 3.7
2014-Oct-11 10:32N 44°26' E 037°43'1111.5
2014-Oct-11 09:33N 44°26' E 037°27'1 1.2
2014-Oct-11 08:33N 44°26' E 037°25'1 1.2
2014-Oct-11 07:33N 44°26' E 037°27'1 1.3
2014-Oct-11 06:33N 44°25' E 037°28'1 1.2
2014-Oct-11 05:33N 44°25' E 037°30'1 1.4
2014-Oct-11 04:33N 44°24' E 037°32'2 1.6
2014-Oct-11 03:33N 44°24' E 037°34'2 1.7
2014-Oct-11 02:26N 44°23' E 037°36'4 1.9
2014-Oct-11 00:31N 44°21' E 037°41'2 1.7
2014-Oct-10 23:32N 44°21' E 037°43'2 1.5
2014-Oct-10 22:33N 44°20' E 037°45'1 1.4
2014-Oct-10 21:32N 44°20' E 037°47'1 1.4
2014-Oct-10 20:30N 44°20' E 037°49'1 1.4
2014-Oct-10 19:33N 44°21' E 037°51'1 1.5
2014-Oct-10 18:31N 44°22' E 037°52'1 1.2
2014-Oct-10 17:32N 44°22' E 037°54'1 1.3
2014-Oct-10 16:33N 44°23' E 037°55'1 1.4
2014-Oct-10 15:31N 44°25' E 037°55'1 0.7
2014-Oct-10 14:33N 44°25' E 037°55'1 0.6
2014-Oct-10 13:33N 44°26' E 037°55'0 0.5
2014-Oct-10 12:33N 44°26' E 037°54'5 4.7
2014-Oct-10 11:33N 44°24' E 037°47'1211.8
2014-Oct-10 10:33N 44°21' E 037°32'8 5.5
2014-Oct-10 09:10N 44°19' E 037°21'0 0.6
2014-Oct-10 08:33N 44°19' E 037°22'1 0.7
2014-Oct-10 06:33N 44°18' E 037°24'1 0.8
2014-Oct-10 05:33N 44°18' E 037°25'1 0.9
2014-Oct-10 04:24N 44°18' E 037°26'1 0.8
2014-Oct-10 03:32N 44°18' E 037°27'  
Track history (hours):
 
Tides and Currents Weather Stations Pressure Air Temp Water Temp Dewpoint Dewpoint Depression Visibility Wind Speed Wind Dir Waves Ship Positions

Mount Robson

Last reported at 2014-Oct-20 02:16 UTC. Time now 2014-Oct-25 12:02 UTC.
Position N 35°48' E 014°55'.

Length 181 m; draft 10.2 m.

Type: Tanker. MMSI: 210253000.

Date/timePositionNaut miles runAvg speedWind from/ knotsBaromVisibWave heightAir tempDewpointWater temp
2014-Oct-20 02:16N 35°48' E 014°55'0 0.0
2014-Oct-20 01:07N 35°48' E 014°55'0 0.0
2014-Oct-19 23:25N 35°48' E 014°55'0 0.0
2014-Oct-19 05:31N 35°48' E 014°55'41012.0
2014-Oct-17 19:22N 36°32' E 023°20'1012.4
2014-Oct-17 18:33N 36°41' E 023°26'1211.8
2014-Oct-17 17:33N 36°51' E 023°34'1212.4
2014-Oct-17 16:33N 36°60' E 023°45'1312.6
2014-Oct-17 15:33N 37°09' E 023°56'2512.4
2014-Oct-17 13:33N 37°27' E 024°17'1612.3
2014-Oct-17 12:16N 37°40' E 024°28'1012.8
2014-Oct-17 11:30N 37°49' E 024°33'12812.3
2014-Oct-17 01:07N 39°46' E 025°41'1013.0
2014-Oct-17 00:21N 39°54' E 025°49'172 6.1
2014-Oct-15 20:05N 41°16' E 029°08'17 2.2
2014-Oct-15 12:13N 41°27' E 029°25'1112.1
2014-Oct-15 11:21N 41°32' E 029°38'26012.4
2014-Oct-14 14:26N 43°30' E 034°52'1112.5
2014-Oct-14 13:33N 43°35' E 035°06'1312.4
2014-Oct-14 12:29N 43°41' E 035°22'1212.4
2014-Oct-14 11:32N 43°46' E 035°36'1212.4
2014-Oct-14 10:33N 43°52' E 035°51'4012.2
2014-Oct-14 07:18N 44°10' E 036°40'3512.5
2014-Oct-14 04:30N 44°26' E 037°24'1212.7
2014-Oct-14 03:33N 44°31' E 037°39'1211.9
2014-Oct-14 02:33N 44°39' E 037°51'5 4.9
2014-Oct-14 01:33N 44°44' E 037°47'0 0.0
2014-Oct-14 00:30N 44°44' E 037°47'0 0.0
2014-Oct-13 23:31N 44°44' E 037°47'0 0.0
2014-Oct-13 22:31N 44°44' E 037°47'0 0.0
2014-Oct-13 21:28N 44°44' E 037°47'0 0.0
2014-Oct-13 20:31N 44°44' E 037°47'0 0.0
2014-Oct-13 19:31N 44°44' E 037°47'0 0.0
2014-Oct-13 18:31N 44°44' E 037°47'0 0.0
2014-Oct-13 17:30N 44°44' E 037°47'0 0.0
2014-Oct-13 16:33N 44°44' E 037°47'0 0.0
2014-Oct-13 15:31N 44°44' E 037°47'0 0.0
2014-Oct-13 14:33N 44°44' E 037°47'0 0.0
2014-Oct-13 13:31N 44°44' E 037°47'0 0.0
2014-Oct-13 12:28N 44°44' E 037°47'0 0.0
2014-Oct-13 11:31N 44°44' E 037°47'0 0.0
2014-Oct-13 10:30N 44°44' E 037°47'0 0.0
2014-Oct-13 09:31N 44°44' E 037°47'0 0.0
2014-Oct-13 08:31N 44°44' E 037°47'0 0.0
2014-Oct-13 07:30N 44°44' E 037°47'0 0.0
2014-Oct-13 06:33N 44°44' E 037°47'0 0.0
2014-Oct-13 05:34N 44°44' E 037°47'0 0.0
2014-Oct-13 04:28N 44°44' E 037°47'0 0.0
2014-Oct-13 03:34N 44°44' E 037°47'0 0.0
2014-Oct-13 02:30N 44°44' E 037°47'0 0.0
2014-Oct-13 01:31N 44°44' E 037°47'0 0.0
2014-Oct-13 00:28N 44°44' E 037°47'0 0.0
2014-Oct-12 23:31N 44°44' E 037°47'0 0.0
2014-Oct-12 22:31N 44°44' E 037°47'0 0.0
2014-Oct-12 21:31N 44°44' E 037°47'0 0.0
2014-Oct-12 20:31N 44°44' E 037°47'0 0.0
2014-Oct-12 19:31N 44°44' E 037°47'0 0.0
2014-Oct-12 18:31N 44°44' E 037°47'0 0.0
2014-Oct-12 17:30N 44°44' E 037°47'0 0.0
2014-Oct-12 16:28N 44°44' E 037°47'0 0.0
2014-Oct-12 15:31N 44°44' E 037°47'0 0.0
2014-Oct-12 14:28N 44°44' E 037°47'0 0.0
2014-Oct-12 13:31N 44°44' E 037°47'0 0.0
2014-Oct-12 12:31N 44°44' E 037°47'0 0.0
2014-Oct-12 11:28N 44°44' E 037°47'0 0.0
2014-Oct-12 10:25N 44°44' E 037°47'0 0.0
2014-Oct-12 09:28N 44°44' E 037°47'0 0.0
2014-Oct-12 08:28N 44°44' E 037°47'0 0.0
2014-Oct-12 07:31N 44°44' E 037°47'0 0.0
2014-Oct-12 06:27N 44°44' E 037°47'0 0.0
2014-Oct-12 05:31N 44°44' E 037°47'0 0.0
2014-Oct-12 04:31N 44°44' E 037°47'0 0.0
2014-Oct-12 03:30N 44°44' E 037°47'0 0.0
2014-Oct-12 02:28N 44°44' E 037°47'0 0.0
2014-Oct-12 01:33N 44°44' E 037°47'0 0.0
2014-Oct-12 00:31N 44°44' E 037°47'0 0.0
2014-Oct-11 23:28N 44°44' E 037°47'0 0.0
2014-Oct-11 22:33N 44°44' E 037°47'0 0.0
2014-Oct-11 21:31N 44°44' E 037°47'2 2.6
2014-Oct-11 20:33N 44°42' E 037°49'7 7.4
2014-Oct-11 19:33N 44°34' E 037°51'1212.3
2014-Oct-11 18:33N 44°27' E 037°38'4 3.5
2014-Oct-11 17:31N 44°23' E 037°36'2 2.1
2014-Oct-11 16:29N 44°23' E 037°39'2 1.7
2014-Oct-11 15:32N 44°23' E 037°41'2 1.6
2014-Oct-11 14:33N 44°23' E 037°44'1 1.3
2014-Oct-11 13:33N 44°24' E 037°45'1 0.9
2014-Oct-11 12:33N 44°24' E 037°47'1 0.7
2014-Oct-11 11:33N 44°24' E 037°48'4 3.7
2014-Oct-11 10:32N 44°26' E 037°43'1111.5
2014-Oct-11 09:33N 44°26' E 037°27'1 1.2
2014-Oct-11 08:33N 44°26' E 037°25'1 1.2
2014-Oct-11 07:33N 44°26' E 037°27'1 1.3
2014-Oct-11 06:33N 44°25' E 037°28'1 1.2
2014-Oct-11 05:33N 44°25' E 037°30'1 1.4
2014-Oct-11 04:33N 44°24' E 037°32'2 1.6
2014-Oct-11 03:33N 44°24' E 037°34'2 1.7
2014-Oct-11 02:26N 44°23' E 037°36'4 1.9
2014-Oct-11 00:31N 44°21' E 037°41'2 1.7
2014-Oct-10 23:32N 44°21' E 037°43'2 1.5
2014-Oct-10 22:33N 44°20' E 037°45'1 1.4
2014-Oct-10 21:32N 44°20' E 037°47'1 1.4
2014-Oct-10 20:30N 44°20' E 037°49'1 1.4
2014-Oct-10 19:33N 44°21' E 037°51'1 1.5
2014-Oct-10 18:31N 44°22' E 037°52'1 1.2
2014-Oct-10 17:32N 44°22' E 037°54'1 1.3
2014-Oct-10 16:33N 44°23' E 037°55'1 1.4
2014-Oct-10 15:31N 44°25' E 037°55'1 0.7
2014-Oct-10 14:33N 44°25' E 037°55'1 0.6
2014-Oct-10 13:33N 44°26' E 037°55'0 0.5
2014-Oct-10 12:33N 44°26' E 037°54'5 4.7
2014-Oct-10 11:33N 44°24' E 037°47'1211.8
2014-Oct-10 10:33N 44°21' E 037°32'8 5.5
2014-Oct-10 09:10N 44°19' E 037°21'0 0.6
2014-Oct-10 08:33N 44°19' E 037°22'1 0.7
2014-Oct-10 06:33N 44°18' E 037°24'1 0.8
2014-Oct-10 05:33N 44°18' E 037°25'1 0.9
2014-Oct-10 04:24N 44°18' E 037°26'1 0.8
2014-Oct-10 03:32N 44°18' E 037°27'  

Dump ship's entire track history